createdAt,value
2022-08-09T00:01:43.033Z,1.20
2022-08-09T00:04:34.387Z,1.27
2022-08-09T00:07:03.264Z,1.73
2022-08-09T00:09:35.134Z,1.30
2022-08-09T00:12:05.043Z,1.40
2022-08-09T00:14:38.362Z,1.60
2022-08-09T00:17:08.086Z,1.48
2022-08-09T00:19:35.854Z,2.00
2022-08-09T00:22:03.425Z,1.40
2022-08-09T00:24:32.190Z,1.80
2022-08-09T00:26:59.878Z,1.50
2022-08-09T00:30:16.546Z,1.20
2022-08-09T00:32:26.539Z,1.50
2022-08-09T00:34:54.836Z,1.57
2022-08-09T00:37:22.383Z,1.90
2022-08-09T00:40:13.967Z,1.60
2022-08-09T00:44:16.376Z,3.00
2022-08-09T00:45:25.887Z,1.50
2022-08-09T00:47:55.482Z,1.60
2022-08-09T00:50:52.807Z,1.87
2022-08-09T00:53:23.990Z,1.77
2022-08-09T00:56:05.049Z,1.30
2022-08-09T00:58:36.710Z,2.07
2022-08-09T01:01:06.984Z,1.50
2022-08-09T01:03:46.287Z,1.80
2022-08-09T01:06:21.731Z,1.37
2022-08-09T01:08:56.658Z,1.88
2022-08-09T01:11:31.404Z,1.60
2022-08-09T01:14:04.697Z,1.60
2022-08-09T01:20:10.724Z,1.40
2022-08-09T01:22:57.660Z,1.92
2022-08-09T01:25:41.574Z,1.90
2022-08-09T01:28:11.372Z,1.60
2022-08-09T01:30:52.632Z,1.57
2022-08-09T01:33:22.131Z,1.37
2022-08-09T01:35:52.220Z,1.97
2022-08-09T01:38:23.392Z,1.60
2022-08-09T01:41:02.960Z,1.53
2022-08-09T01:43:50.200Z,1.70
2022-08-09T01:46:25.236Z,1.63
2022-08-09T01:48:56.423Z,1.93
2022-08-09T01:51:42.712Z,1.67
2022-08-09T01:54:12.633Z,1.40
2022-08-09T01:56:41.363Z,1.63
2022-08-09T01:59:11.643Z,1.90
2022-08-09T02:01:58.013Z,1.83
2022-08-09T02:04:46.455Z,1.73
2022-08-09T02:08:34.630Z,2.00
2022-08-09T02:10:05.952Z,1.93
2022-08-09T02:12:34.567Z,1.83
2022-08-09T02:21:58.604Z,2.47
2022-08-09T02:24:27.415Z,1.83
2022-08-09T02:26:58.620Z,1.50
2022-08-09T02:29:27.313Z,2.00
2022-08-09T02:31:56.579Z,1.87
2022-08-09T02:34:41.748Z,1.93
2022-08-09T02:37:19.172Z,1.97
2022-08-09T02:39:49.910Z,1.80
2022-08-09T02:42:24.804Z,1.70
2022-08-09T02:44:54.172Z,1.80
2022-08-09T02:47:22.982Z,2.10
2022-08-09T02:49:55.413Z,1.73
2022-08-09T02:52:35.495Z,2.00
2022-08-09T02:55:15.217Z,2.10
2022-08-09T02:58:32.972Z,2.00
2022-08-09T03:00:35.685Z,1.80
2022-08-09T03:03:07.872Z,2.50
2022-08-09T03:05:35.909Z,1.70
2022-08-09T03:08:10.030Z,2.93
2022-08-09T03:10:38.348Z,2.10
2022-08-09T03:13:08.595Z,2.20
2022-08-09T03:16:04.142Z,1.90
2022-08-09T03:18:31.078Z,2.63
2022-08-09T03:20:59.523Z,2.03
2022-08-09T03:23:28.263Z,2.43
2022-08-09T03:25:57.870Z,2.27
2022-08-09T03:28:27.731Z,2.90
2022-08-09T03:30:55.646Z,2.10
2022-08-09T03:33:24.114Z,2.37
2022-08-09T03:36:16.488Z,2.13
2022-08-09T03:38:43.073Z,2.10
2022-08-09T03:41:15.698Z,2.17
2022-08-09T03:44:02.943Z,2.27
2022-08-09T03:46:31.867Z,2.10
2022-08-09T03:49:08.063Z,2.10
2022-08-09T03:51:43.672Z,2.20
2022-08-09T03:54:29.673Z,2.73
2022-08-09T03:56:58.301Z,2.23
2022-08-09T03:59:27.169Z,2.00
2022-08-09T04:01:55.863Z,2.33
2022-08-09T04:04:24.556Z,2.23
2022-08-09T04:06:51.982Z,2.47
2022-08-09T04:09:47.939Z,2.50
2022-08-09T04:12:30.705Z,2.80
2022-08-09T04:15:01.657Z,2.50
2022-08-09T04:17:30.051Z,2.63
2022-08-09T04:19:58.675Z,2.60
2022-08-09T04:22:30.264Z,2.33
2022-08-09T04:24:59.452Z,2.40
2022-08-09T04:27:29.108Z,2.20
2022-08-09T04:29:56.396Z,2.50
2022-08-09T04:32:37.273Z,2.70
2022-08-09T04:35:08.514Z,2.47
2022-08-09T04:37:45.176Z,2.20
2022-08-09T04:40:28.905Z,2.90
2022-08-09T04:43:02.393Z,2.83
2022-08-09T04:45:35.977Z,2.87
2022-08-09T04:48:19.139Z,2.80
2022-08-09T04:50:46.859Z,2.53
2022-08-09T04:53:17.411Z,2.83
2022-08-09T04:55:58.306Z,2.40
2022-08-09T04:58:29.074Z,2.33
2022-08-09T05:00:59.224Z,2.43
2022-08-09T05:03:39.940Z,2.93
2022-08-09T05:06:11.208Z,2.50
2022-08-09T05:08:38.595Z,2.50
2022-08-09T05:11:07.552Z,2.80
2022-08-09T05:13:38.808Z,3.37
2022-08-09T05:16:10.131Z,3.07
2022-08-09T05:18:57.922Z,2.60
2022-08-09T05:21:29.705Z,2.67
2022-08-09T05:24:01.411Z,2.40
2022-08-09T05:26:36.629Z,1.87
2022-08-09T05:29:06.331Z,1.90
2022-08-09T05:31:44.099Z,2.93
2022-08-09T05:34:17.581Z,2.57
2022-08-09T05:36:46.780Z,3.13
2022-08-09T05:39:14.807Z,2.80
2022-08-09T05:41:56.841Z,1.93
2022-08-09T05:44:32.809Z,3.60
2022-08-09T05:47:05.038Z,2.63
2022-08-09T05:50:30.399Z,3.13
2022-08-09T05:52:20.730Z,3.03
2022-08-09T05:54:49.179Z,3.03
2022-08-09T05:57:17.648Z,3.60
2022-08-09T05:59:47.864Z,3.13
2022-08-09T06:02:17.053Z,1.90
2022-08-09T06:04:46.267Z,3.27
2022-08-09T06:07:21.582Z,3.23
2022-08-09T06:10:01.470Z,3.27
2022-08-09T06:12:30.689Z,3.00
2022-08-09T06:15:01.562Z,2.90
2022-08-09T06:17:39.018Z,3.10
2022-08-09T06:20:07.958Z,1.87
2022-08-09T06:22:36.250Z,1.23
2022-08-09T06:25:04.165Z,2.80
2022-08-09T06:27:43.167Z,1.40
2022-08-09T06:30:20.577Z,2.03
2022-08-09T06:33:00.515Z,2.60
2022-08-09T06:35:56.852Z,2.63
2022-08-09T06:38:32.156Z,1.77
2022-08-09T06:41:05.466Z,3.10
2022-08-09T06:43:46.268Z,2.50
2022-08-09T06:46:39.491Z,2.10
2022-08-09T06:49:02.690Z,2.70
2022-08-09T06:51:29.927Z,2.43
2022-08-09T06:54:00.983Z,2.60
2022-08-09T06:56:31.079Z,1.87
2022-08-09T07:00:52.679Z,2.60
2022-08-09T07:04:52.162Z,1.40
2022-08-09T07:07:58.737Z,1.73
2022-08-09T07:10:22.421Z,1.80
2022-08-09T07:12:57.662Z,1.60
2022-08-09T07:16:38.865Z,1.67
2022-08-09T07:18:27.906Z,2.10
2022-08-09T07:21:00.012Z,1.47
2022-08-09T07:23:27.297Z,1.77
2022-08-09T07:26:02.796Z,1.43
2022-08-09T07:28:30.473Z,1.63
2022-08-09T07:31:02.023Z,1.97
2022-08-09T07:33:32.578Z,1.50
2022-08-09T07:36:19.531Z,1.90
2022-08-09T07:44:12.473Z,1.67
2022-08-09T07:46:39.794Z,1.87
2022-08-09T08:14:25.843Z,1.30
2022-08-09T08:17:07.787Z,1.40
2022-08-09T08:19:39.313Z,1.30
2022-08-09T08:22:06.684Z,1.40
2022-08-09T08:24:40.627Z,1.37
2022-08-09T08:27:17.008Z,1.40
2022-08-09T08:29:49.007Z,1.50
2022-08-09T08:32:28.748Z,1.20
2022-08-09T08:35:07.951Z,1.30
2022-08-09T08:37:41.955Z,1.17
2022-08-09T08:40:26.573Z,1.50
2022-08-09T08:42:58.745Z,2.23
2022-08-09T08:45:36.686Z,2.43
2022-08-09T08:48:05.987Z,1.20
2022-08-09T08:50:33.351Z,1.13
2022-08-09T08:53:03.965Z,1.10
2022-08-09T08:55:32.328Z,1.33
2022-08-09T08:57:59.744Z,1.00
2022-08-09T09:00:34.177Z,1.40
2022-08-09T09:03:11.562Z,1.30
2022-08-09T09:05:59.715Z,1.33
2022-08-09T09:08:37.972Z,1.30
2022-08-09T09:11:08.081Z,2.17
2022-08-09T09:13:54.836Z,1.48
2022-08-09T09:24:43.566Z,1.35
2022-08-09T09:33:02.331Z,1.10
2022-08-09T09:36:01.058Z,1.08
2022-08-09T09:38:41.522Z,1.05
2022-08-09T09:41:11.716Z,1.10
2022-08-09T09:43:41.345Z,0.90
2022-08-09T09:48:56.910Z,1.10
2022-08-09T09:51:26.029Z,1.20
2022-08-09T09:54:17.096Z,1.15
2022-08-09T09:58:01.238Z,1.13
2022-08-09T09:59:37.535Z,0.88
2022-08-09T10:02:06.226Z,1.20
2022-08-09T10:04:35.896Z,1.20
2022-08-09T10:07:09.932Z,1.25
2022-08-09T10:09:48.577Z,1.15
2022-08-09T10:12:28.427Z,0.93
2022-08-09T10:15:03.524Z,1.20
2022-08-09T10:17:50.775Z,1.05
2022-08-09T10:20:27.606Z,0.98
2022-08-09T10:23:00.971Z,0.85
2022-08-09T10:25:34.927Z,1.08
2022-08-09T10:28:19.001Z,1.02
2022-08-09T10:32:13.566Z,1.10
2022-08-09T10:34:08.336Z,0.88
2022-08-09T10:36:23.054Z,1.00
2022-08-09T10:38:57.160Z,1.10
2022-08-09T10:41:27.931Z,0.90
2022-08-09T10:43:59.512Z,1.00
2022-08-09T10:46:54.154Z,1.00
2022-08-09T10:49:49.826Z,1.17
2022-08-09T10:52:20.540Z,1.30
2022-08-09T10:54:48.095Z,0.82
2022-08-09T10:57:17.595Z,1.35
2022-08-09T10:59:57.742Z,0.90
2022-08-09T11:03:13.675Z,1.02
2022-08-09T11:05:33.778Z,1.10
2022-08-09T11:08:17.159Z,1.10
2022-08-09T11:10:59.817Z,0.65
2022-08-09T11:13:50.133Z,1.00
2022-08-09T11:16:37.435Z,0.82
2022-08-09T11:19:09.819Z,1.02
2022-08-09T11:21:55.068Z,1.20
2022-08-09T11:24:56.443Z,1.25
2022-08-09T11:28:05.325Z,1.10
2022-08-09T11:30:33.740Z,1.10
2022-08-09T11:33:04.479Z,1.50
2022-08-09T11:35:34.788Z,1.00
2022-08-09T11:38:15.527Z,1.10
2022-08-09T11:40:44.651Z,0.88
2022-08-09T11:43:15.702Z,1.20
2022-08-09T11:45:53.522Z,1.23
2022-08-09T11:48:26.135Z,1.67
2022-08-09T11:52:56.337Z,1.45
2022-08-09T11:54:01.720Z,0.90
2022-08-09T11:56:42.483Z,1.00
2022-08-09T11:59:30.586Z,0.98
2022-08-09T12:02:34.517Z,0.80
2022-08-09T12:04:58.219Z,1.13
2022-08-09T12:07:41.564Z,0.90
2022-08-09T12:10:14.395Z,1.23
2022-08-09T12:12:57.250Z,0.95
2022-08-09T12:15:49.648Z,1.00
2022-08-09T12:18:29.634Z,0.80
2022-08-09T12:21:00.326Z,0.88
2022-08-09T12:23:57.981Z,0.88
2022-08-09T12:26:19.529Z,0.60
2022-08-09T12:29:10.890Z,0.88
2022-08-09T12:32:01.706Z,0.95
2022-08-09T12:34:33.526Z,1.30
2022-08-09T12:37:09.764Z,0.90
2022-08-09T12:39:59.280Z,0.95
2022-08-09T12:42:26.639Z,1.10
2022-08-09T12:44:54.790Z,0.82
2022-08-09T12:47:22.783Z,0.77
2022-08-09T12:49:52.839Z,0.75
2022-08-09T12:52:21.852Z,0.77
2022-08-09T12:56:16.287Z,0.80
2022-08-09T12:57:59.059Z,0.85
2022-08-09T13:00:27.616Z,0.80
2022-08-09T13:02:55.488Z,0.95
2022-08-09T13:05:25.352Z,0.85
2022-08-09T13:08:13.523Z,0.80
2022-08-09T13:10:44.538Z,0.95
2022-08-09T13:13:28.368Z,0.93
2022-08-09T13:16:15.665Z,1.10
2022-08-09T13:18:46.980Z,0.82
2022-08-09T13:22:35.668Z,0.75
2022-08-09T13:24:44.720Z,1.08
2022-08-09T13:26:58.043Z,0.98
2022-08-09T13:29:42.100Z,1.00
2022-08-09T13:32:25.441Z,0.73
2022-08-09T13:34:54.998Z,1.00
2022-08-09T13:37:24.620Z,0.70
2022-08-09T13:41:51.585Z,0.95
2022-08-09T13:42:59.582Z,1.00
2022-08-09T13:45:32.316Z,0.88
2022-08-09T13:48:18.122Z,0.77
2022-08-09T13:50:54.324Z,0.90
2022-08-09T13:56:48.942Z,0.70
2022-08-09T13:59:16.183Z,0.70
2022-08-09T14:01:56.482Z,1.00
2022-08-09T14:04:29.404Z,0.95
2022-08-09T14:06:58.045Z,0.90
2022-08-09T14:09:26.099Z,1.58
2022-08-09T14:11:56.415Z,1.10
2022-08-09T14:14:27.572Z,0.88
2022-08-09T14:16:56.599Z,1.02
2022-08-09T14:19:27.131Z,0.98
2022-08-09T14:22:00.831Z,0.90
2022-08-09T14:24:32.357Z,0.77
2022-08-09T14:27:02.392Z,0.98
2022-08-09T14:30:18.645Z,0.88
2022-08-09T14:32:19.988Z,0.90
2022-08-09T14:34:56.891Z,1.00
2022-08-09T14:37:28.251Z,0.73
2022-08-09T14:39:56.014Z,1.02
2022-08-09T14:42:30.977Z,0.98
2022-08-09T14:45:00.866Z,1.02
2022-08-09T14:47:42.918Z,0.98
2022-08-09T14:50:16.259Z,0.98
2022-08-09T14:52:50.976Z,0.80
2022-08-09T14:55:29.298Z,0.73
2022-08-09T14:58:01.260Z,0.82
2022-08-09T15:00:30.727Z,1.25
2022-08-09T15:02:58.456Z,0.93
2022-08-09T15:05:27.635Z,0.80
2022-08-09T15:07:58.299Z,0.60
2022-08-09T15:10:25.945Z,0.80
2022-08-09T15:12:53.564Z,0.80
2022-08-09T15:15:22.655Z,1.10
2022-08-09T15:17:52.896Z,0.60
2022-08-09T15:21:58.458Z,1.08
2022-08-09T15:24:02.743Z,1.00
2022-08-09T15:25:56.079Z,0.80
2022-08-09T15:28:27.554Z,1.15
2022-08-09T15:31:13.306Z,1.30
2022-08-09T15:34:17.333Z,0.73
2022-08-09T15:36:30.810Z,0.77
2022-08-09T15:38:58.811Z,0.80
2022-08-09T15:41:31.343Z,0.50
2022-08-09T15:43:59.711Z,0.80
2022-08-09T15:46:33.461Z,0.80
2022-08-09T15:49:21.154Z,0.80
2022-08-09T15:52:05.196Z,0.90
2022-08-09T15:54:44.263Z,0.77
2022-08-09T15:57:18.959Z,0.95
2022-08-09T16:00:00.991Z,0.80
2022-08-09T16:02:30.615Z,1.00
2022-08-09T16:04:57.841Z,0.90
2022-08-09T16:07:25.724Z,1.08
2022-08-09T16:10:02.588Z,0.80
2022-08-09T16:12:32.975Z,0.90
2022-08-09T16:15:01.067Z,0.80
2022-08-09T16:17:29.724Z,0.73
2022-08-09T16:20:04.814Z,0.80
2022-08-09T16:22:36.769Z,0.90
2022-08-09T16:25:10.959Z,0.90
2022-08-09T16:27:38.827Z,0.82
2022-08-09T16:30:09.139Z,0.90
2022-08-09T16:32:49.537Z,1.00
2022-08-09T16:35:56.099Z,1.27
2022-08-09T16:38:08.239Z,0.90
2022-08-09T16:40:40.957Z,0.70
2022-08-09T16:43:08.784Z,1.10
2022-08-09T16:45:41.583Z,0.95
2022-08-09T16:48:40.749Z,0.90
2022-08-09T16:54:27.773Z,1.15
2022-08-09T16:57:26.938Z,1.17
2022-08-09T17:00:15.141Z,0.90
2022-08-09T17:06:33.847Z,1.00
2022-08-09T17:09:46.136Z,1.10
2022-08-09T17:12:08.446Z,1.05
2022-08-09T17:14:35.672Z,1.42
2022-08-09T17:17:23.283Z,3.85
2022-08-09T17:20:32.411Z,2.00
2022-08-09T17:22:49.838Z,1.02
2022-08-09T17:25:18.052Z,1.13
2022-08-09T17:27:49.355Z,1.10
2022-08-09T17:30:22.017Z,1.05
2022-08-09T17:32:53.402Z,1.50
2022-08-09T17:38:32.098Z,1.52
2022-08-09T17:41:04.575Z,1.20
2022-08-09T17:43:33.679Z,1.40
2022-08-09T17:46:06.845Z,1.25
2022-08-09T17:48:39.438Z,1.20
2022-08-09T17:51:17.902Z,1.10
2022-08-09T17:53:52.036Z,1.15
2022-08-09T17:56:26.841Z,1.10
2022-08-09T17:58:55.703Z,1.02
2022-08-09T18:01:23.880Z,1.33
2022-08-09T18:03:52.020Z,0.82
2022-08-09T18:06:28.815Z,2.15
2022-08-09T18:09:01.832Z,1.00
2022-08-09T18:11:31.039Z,0.90
2022-08-09T18:14:15.653Z,1.27
2022-08-09T18:16:48.761Z,1.13
2022-08-09T18:20:55.956Z,0.88
2022-08-09T18:22:16.817Z,1.02
2022-08-09T18:24:46.477Z,1.25
2022-08-09T18:27:14.024Z,1.10
2022-08-09T18:30:38.341Z,1.00
2022-08-09T18:32:53.993Z,1.08
2022-08-09T18:35:47.973Z,1.10
2022-08-09T18:38:09.386Z,1.35
2022-08-09T18:40:40.531Z,1.23
2022-08-09T18:43:08.236Z,1.30
2022-08-09T18:46:50.478Z,1.17
2022-08-09T18:48:23.199Z,1.33
2022-08-09T18:50:57.539Z,1.80
2022-08-09T18:53:25.047Z,1.10
2022-08-09T18:56:05.528Z,0.90
2022-08-09T18:58:33.338Z,0.90
2022-08-09T19:01:00.866Z,1.02
2022-08-09T19:03:28.798Z,0.82
2022-08-09T19:06:02.883Z,0.95
2022-08-09T19:08:31.647Z,0.90
2022-08-09T19:11:00.289Z,0.82
2022-08-09T19:13:38.263Z,1.27
2022-08-09T19:16:20.967Z,1.00
2022-08-09T19:18:49.791Z,0.80
2022-08-09T19:21:18.905Z,0.90
2022-08-09T19:24:32.452Z,1.02
2022-08-09T19:26:37.571Z,1.08
2022-08-09T19:29:15.439Z,0.82
2022-08-09T19:31:46.391Z,0.90
2022-08-09T19:34:21.464Z,1.00
2022-08-09T19:36:50.937Z,1.10
2022-08-09T19:39:20.865Z,0.85
2022-08-09T19:42:07.322Z,1.10
2022-08-09T19:44:34.609Z,1.25
2022-08-09T19:47:02.229Z,1.45
2022-08-09T19:50:08.929Z,1.13
2022-08-09T19:52:18.239Z,0.88
2022-08-09T19:54:45.735Z,1.00
2022-08-09T19:57:14.398Z,1.08
2022-08-09T20:00:06.601Z,1.02
2022-08-09T20:04:12.726Z,0.93
2022-08-09T20:05:25.092Z,1.10
2022-08-09T20:07:59.598Z,1.00
2022-08-09T20:10:36.875Z,0.95
2022-08-09T20:13:07.082Z,2.08
2022-08-09T20:16:34.769Z,1.00
2022-08-09T20:18:22.396Z,1.30
2022-08-09T20:20:51.236Z,0.90
2022-08-09T20:23:18.788Z,0.90
2022-08-09T20:25:52.127Z,1.27
2022-08-09T20:28:27.788Z,1.00
2022-08-09T20:31:02.656Z,0.90
2022-08-09T20:33:38.914Z,0.90
2022-08-09T20:36:09.388Z,0.90
2022-08-09T20:39:07.121Z,0.98
2022-08-09T20:41:35.301Z,1.20
2022-08-09T20:44:06.945Z,1.00
2022-08-09T20:46:44.159Z,1.08
2022-08-09T20:49:12.523Z,1.00
2022-08-09T20:51:41.446Z,1.00
2022-08-09T20:54:12.589Z,1.10
2022-08-09T20:56:46.694Z,1.00
2022-08-09T20:59:17.261Z,0.98
2022-08-09T21:01:50.991Z,1.15
2022-08-09T21:05:53.362Z,0.90
2022-08-09T21:07:11.291Z,0.88
2022-08-09T21:09:41.865Z,1.00
2022-08-09T21:14:48.358Z,0.82
2022-08-09T21:18:22.818Z,1.00
2022-08-09T21:20:22.535Z,0.88
2022-08-09T21:22:52.622Z,0.68
2022-08-09T21:25:22.500Z,1.00
2022-08-09T21:27:53.300Z,1.00
2022-08-09T21:30:24.948Z,0.82
2022-08-09T21:32:52.602Z,1.10
2022-08-09T21:35:21.706Z,1.08
2022-08-09T21:37:58.784Z,0.90
2022-08-09T21:40:30.945Z,1.30
2022-08-09T21:43:00.652Z,1.23
2022-08-09T21:45:30.444Z,0.70
2022-08-09T21:47:58.124Z,1.17
2022-08-09T21:50:38.467Z,1.13
2022-08-09T21:53:06.640Z,1.10
2022-08-09T21:55:46.664Z,1.30
2022-08-09T21:58:14.170Z,1.02
2022-08-09T22:00:43.226Z,1.15
2022-08-09T22:03:19.639Z,1.08
2022-08-09T22:05:53.210Z,1.15
2022-08-09T22:08:24.426Z,0.93
2022-08-09T22:11:49.843Z,0.90
2022-08-09T22:13:43.151Z,1.05
2022-08-09T22:16:12.387Z,1.60
2022-08-09T22:18:53.121Z,1.10
2022-08-09T22:21:22.107Z,1.10
2022-08-09T22:24:01.200Z,1.10
2022-08-09T22:26:35.035Z,1.17
2022-08-09T22:29:07.039Z,0.85
2022-08-09T22:31:36.890Z,1.20
2022-08-09T22:34:09.837Z,0.93
2022-08-09T22:36:46.020Z,0.90
2022-08-09T22:39:46.608Z,1.35
2022-08-09T22:42:01.410Z,1.00
2022-08-09T22:44:29.865Z,1.00
2022-08-09T22:48:13.805Z,0.68
2022-08-09T22:49:51.987Z,1.20
2022-08-09T22:52:19.990Z,0.88
2022-08-09T22:54:47.390Z,0.95
2022-08-09T22:57:14.866Z,1.00
2022-08-09T22:59:57.165Z,1.00
2022-08-09T23:02:27.709Z,0.90
2022-08-09T23:04:55.386Z,1.02
2022-08-09T23:08:16.328Z,1.30
2022-08-09T23:10:12.376Z,0.90
2022-08-09T23:12:39.640Z,0.82
2022-08-09T23:15:07.319Z,1.00
2022-08-09T23:17:36.127Z,1.10
2022-08-09T23:20:07.769Z,1.00
2022-08-09T23:22:35.731Z,0.95
2022-08-09T23:25:21.691Z,0.90
2022-08-09T23:28:09.312Z,0.88
2022-08-09T23:30:36.200Z,1.23
2022-08-09T23:33:04.824Z,1.25
2022-08-09T23:36:06.431Z,1.05
2022-08-09T23:41:28.786Z,0.90
2022-08-09T23:43:56.899Z,0.88
2022-08-09T23:46:24.143Z,1.05
2022-08-09T23:48:52.746Z,0.98
2022-08-09T23:51:20.023Z,0.95
2022-08-09T23:53:52.657Z,1.10
2022-08-09T23:56:53.399Z,1.13
2022-08-09T23:59:09.799Z,0.90
